Smederevo, Serbia
Current Conditions -  °F | °C
As of 12:30 PM on Saturday 25 Oct 2014 (Local Time) from LYBE Reporting Station
Overcast Overcast  
Wind Chill: 46°   Ceiling: 2500
Heat Index: 46°   Visibility: 6mi
Dew Point: 37°   Wind: 3mph
Humidity: 71%   Direction: 150°SSE
Pressure: 30.27"   Gusts: NA
Location:  44.67°N, 20.93°E
Report Text: LYBE 251030Z 15003KT 120V180 9999 OVC025 08/03 Q1025 NOSIG
Loading
Personal Weather Stations






























Interactive Weather Map
Tropical Storm Tracking
New forecast layout! Learn more

10-Day Weather Forecast

Advertisements
Track Severe Weather on mobile